sim
Sign-in with your pilot id or email,
or register
Callsign
Passwort

Schedule Details

Flight Number: OEO4000
Departure: Frankfurt Airport (EDDF) at 04:50
Arrival: Munich Airport (EDDM) at 06:00

Weather Information
Getting current METAR information for EDDF 190620Z 03009KT CAVOK 13/04 Q1020 NOSIG
Getting current METAR information for EDDM 190620Z 05005KT CAVOK 08/05 Q1020 NOSIG

Schedule Frequency

Route Map